createdAt,value
2023-05-06T00:00:40.253Z,13.20
2023-05-06T00:01:40.256Z,13.21
2023-05-06T00:02:40.328Z,13.19
2023-05-06T00:03:40.345Z,13.12
2023-05-06T00:04:40.315Z,13.13
2023-05-06T00:05:40.299Z,13.05
2023-05-06T00:06:40.347Z,13.06
2023-05-06T00:07:40.405Z,12.99
2023-05-06T00:08:40.343Z,13.23
2023-05-06T00:09:40.419Z,12.98
2023-05-06T00:10:40.352Z,12.81
2023-05-06T00:11:40.429Z,12.95
2023-05-06T00:12:40.463Z,12.91
2023-05-06T00:13:40.458Z,12.97
2023-05-06T00:14:40.487Z,12.84
2023-05-06T00:15:40.497Z,12.68
2023-05-06T00:16:40.583Z,12.56
2023-05-06T00:17:40.563Z,12.64
2023-05-06T00:18:40.508Z,12.71
2023-05-06T00:19:40.542Z,12.91
2023-05-06T00:20:40.593Z,12.82
2023-05-06T00:21:40.545Z,12.75
2023-05-06T00:22:40.606Z,12.83
2023-05-06T00:23:40.632Z,12.75
2023-05-06T00:24:40.653Z,12.78
2023-05-06T00:25:40.676Z,12.82
2023-05-06T00:26:40.656Z,12.72
2023-05-06T00:27:40.760Z,12.68
2023-05-06T00:28:40.748Z,12.52
2023-05-06T00:29:40.775Z,12.51
2023-05-06T00:30:40.808Z,12.78
2023-05-06T00:31:40.813Z,12.94
2023-05-06T00:32:40.840Z,13.03
2023-05-06T00:33:40.784Z,12.97
2023-05-06T00:34:40.791Z,13.00
2023-05-06T00:35:40.794Z,13.03
2023-05-06T00:36:40.826Z,12.80
2023-05-06T00:37:41.005Z,12.88
2023-05-06T00:38:40.834Z,12.84
2023-05-06T00:39:40.832Z,12.83
2023-05-06T00:40:40.877Z,12.80
2023-05-06T00:41:40.878Z,12.69
2023-05-06T00:42:40.890Z,12.80
2023-05-06T00:43:41.021Z,12.67
2023-05-06T00:44:41.117Z,12.89
2023-05-06T00:45:40.995Z,12.74
2023-05-06T00:46:41.188Z,12.71
2023-05-06T00:47:41.032Z,12.82
2023-05-06T00:48:41.072Z,12.73
2023-05-06T00:49:41.049Z,12.49
2023-05-06T00:50:41.162Z,12.71
2023-05-06T00:51:41.209Z,12.54
2023-05-06T00:52:41.096Z,12.64
2023-05-06T00:53:41.430Z,12.77
2023-05-06T00:54:41.136Z,12.81
2023-05-06T00:55:41.129Z,12.75
2023-05-06T00:56:41.163Z,12.61
2023-05-06T00:57:41.223Z,12.65
2023-05-06T00:58:41.181Z,12.41
2023-05-06T00:59:41.203Z,12.41
2023-05-06T01:00:41.197Z,12.43
2023-05-06T01:01:41.318Z,12.24
2023-05-06T01:02:47.611Z,12.18
2023-05-06T01:03:42.398Z,12.19
2023-05-06T01:04:41.255Z,12.22
2023-05-06T01:05:41.253Z,12.24
2023-05-06T01:06:41.272Z,12.26
2023-05-06T01:07:41.277Z,12.58
2023-05-06T01:08:41.235Z,12.25
2023-05-06T01:09:41.248Z,12.29
2023-05-06T01:10:41.190Z,12.28
2023-05-06T01:11:41.194Z,12.40
2023-05-06T01:12:41.212Z,12.20
2023-05-06T01:13:41.222Z,12.09
2023-05-06T01:14:41.180Z,12.03
2023-05-06T01:15:41.182Z,12.31
2023-05-06T01:16:41.217Z,12.22
2023-05-06T01:17:41.453Z,12.23
2023-05-06T01:18:41.193Z,12.13
2023-05-06T01:19:41.143Z,12.15
2023-05-06T01:20:41.222Z,12.01
2023-05-06T01:21:41.153Z,12.26
2023-05-06T01:22:41.941Z,12.25
2023-05-06T01:23:41.243Z,12.42
2023-05-06T01:24:41.239Z,12.01
2023-05-06T01:25:41.267Z,12.53
2023-05-06T01:26:41.265Z,12.03
2023-05-06T01:27:41.254Z,12.07
2023-05-06T01:28:41.323Z,11.99
2023-05-06T01:29:41.318Z,11.96
2023-05-06T01:30:41.313Z,11.83
2023-05-06T01:31:41.397Z,11.72
2023-05-06T01:32:41.481Z,11.69
2023-05-06T01:33:41.412Z,11.61
2023-05-06T01:34:41.495Z,11.41
2023-05-06T01:35:41.436Z,11.58
2023-05-06T01:36:42.448Z,11.59
2023-05-06T01:37:41.478Z,11.73
2023-05-06T01:38:41.490Z,11.59
2023-05-06T01:39:42.012Z,11.51
2023-05-06T01:40:41.591Z,11.40
2023-05-06T01:41:41.564Z,11.31
2023-05-06T01:42:41.666Z,10.99
2023-05-06T01:43:41.685Z,11.16
2023-05-06T01:44:41.623Z,11.23
2023-05-06T01:45:41.620Z,11.22
2023-05-06T01:46:41.777Z,11.14
2023-05-06T01:47:41.687Z,11.08
2023-05-06T01:48:41.701Z,11.27
2023-05-06T01:49:41.724Z,11.17
2023-05-06T01:50:41.716Z,11.14
2023-05-06T01:51:41.745Z,11.07
2023-05-06T01:52:41.772Z,10.94
2023-05-06T01:53:41.776Z,11.12
2023-05-06T01:54:41.779Z,11.13
2023-05-06T01:55:41.795Z,11.00
2023-05-06T01:56:41.807Z,11.12
2023-05-06T01:57:41.820Z,11.24
2023-05-06T01:58:41.867Z,11.13
2023-05-06T01:59:41.881Z,11.28
2023-05-06T02:00:41.884Z,11.24
2023-05-06T02:01:41.961Z,11.33
2023-05-06T02:02:42.005Z,11.07
2023-05-06T02:03:41.979Z,11.19
2023-05-06T02:04:41.965Z,11.05
2023-05-06T02:05:42.019Z,11.27
2023-05-06T02:06:41.987Z,11.17
2023-05-06T02:07:42.055Z,11.02
2023-05-06T02:08:42.067Z,11.15
2023-05-06T02:09:42.083Z,11.25
2023-05-06T02:10:42.102Z,11.16
2023-05-06T02:11:42.161Z,11.10
2023-05-06T02:12:42.217Z,10.98
2023-05-06T02:13:42.194Z,11.14
2023-05-06T02:14:42.206Z,10.84
2023-05-06T02:15:42.238Z,10.94
2023-05-06T02:16:42.225Z,11.16
2023-05-06T02:17:42.242Z,11.13
2023-05-06T02:18:42.275Z,10.98
2023-05-06T02:19:42.365Z,11.06
2023-05-06T02:20:42.324Z,10.96
2023-05-06T02:21:42.332Z,10.71
2023-05-06T02:22:42.422Z,10.87
2023-05-06T02:23:42.416Z,10.90
2023-05-06T02:24:42.391Z,10.71
2023-05-06T02:25:42.405Z,10.76
2023-05-06T02:26:42.433Z,10.81
2023-05-06T02:27:42.428Z,10.73
2023-05-06T02:28:42.480Z,10.78
2023-05-06T02:29:42.513Z,10.68
2023-05-06T02:30:42.529Z,10.64
2023-05-06T02:31:42.586Z,10.64
2023-05-06T02:32:42.623Z,10.67
2023-05-06T02:33:42.650Z,10.65
2023-05-06T02:34:42.834Z,10.66
2023-05-06T02:35:42.794Z,10.70
2023-05-06T02:36:42.801Z,10.67
2023-05-06T02:37:42.749Z,10.53
2023-05-06T02:38:42.817Z,10.72
2023-05-06T02:39:42.814Z,10.50
2023-05-06T02:40:42.825Z,10.52
2023-05-06T02:41:42.832Z,10.52
2023-05-06T02:42:42.869Z,10.45
2023-05-06T02:43:42.911Z,10.53
2023-05-06T02:44:42.879Z,10.75
2023-05-06T02:45:42.967Z,10.61
2023-05-06T02:46:42.953Z,10.63
2023-05-06T02:47:43.006Z,10.70
2023-05-06T02:48:43.046Z,10.72
2023-05-06T02:49:43.047Z,10.50
2023-05-06T02:50:43.016Z,10.61
2023-05-06T02:51:43.055Z,10.49
2023-05-06T02:52:43.055Z,10.64
2023-05-06T02:53:43.091Z,10.25
2023-05-06T02:54:43.101Z,10.25
2023-05-06T02:55:43.111Z,10.28
2023-05-06T02:56:43.137Z,10.30
2023-05-06T02:57:43.223Z,10.09
2023-05-06T02:58:43.195Z,10.27
2023-05-06T02:59:43.227Z,10.00
2023-05-06T03:00:43.216Z,9.98
2023-05-06T03:01:43.315Z,10.00
2023-05-06T03:02:43.370Z,9.95
2023-05-06T03:03:43.287Z,9.97
2023-05-06T03:04:43.383Z,10.14
2023-05-06T03:05:44.367Z,10.04
2023-05-06T03:06:43.396Z,10.06
2023-05-06T03:07:43.515Z,9.99
2023-05-06T03:08:43.473Z,9.87
2023-05-06T03:09:43.491Z,9.53
2023-05-06T03:10:43.628Z,9.63
2023-05-06T03:11:43.503Z,9.51
2023-05-06T03:12:43.572Z,9.50
2023-05-06T03:13:43.619Z,9.66
2023-05-06T03:14:43.617Z,9.67
2023-05-06T03:15:43.669Z,9.63
2023-05-06T03:16:43.679Z,9.63
2023-05-06T03:17:44.138Z,9.71
2023-05-06T03:18:43.715Z,9.59
2023-05-06T03:19:43.748Z,9.64
2023-05-06T03:20:43.801Z,9.41
2023-05-06T03:21:43.898Z,9.43
2023-05-06T03:22:43.857Z,9.40
2023-05-06T03:23:43.853Z,9.41
2023-05-06T03:24:43.913Z,9.33
2023-05-06T03:25:43.963Z,9.21
2023-05-06T03:26:44.026Z,9.32
2023-05-06T03:27:44.009Z,9.36
2023-05-06T03:28:43.989Z,9.48
2023-05-06T03:29:44.017Z,9.39
2023-05-06T03:30:44.084Z,9.33
2023-05-06T03:31:44.112Z,9.24
2023-05-06T03:32:44.127Z,9.32
2023-05-06T03:33:44.144Z,9.40
2023-05-06T03:34:44.169Z,9.28
2023-05-06T03:35:44.219Z,9.42
2023-05-06T03:36:44.378Z,9.24
2023-05-06T03:37:44.292Z,9.39
2023-05-06T03:38:44.296Z,9.33
2023-05-06T03:39:44.329Z,9.25
2023-05-06T03:40:44.336Z,9.35
2023-05-06T03:41:44.358Z,9.32
2023-05-06T03:42:44.394Z,9.43
2023-05-06T03:43:44.457Z,9.37
2023-05-06T03:44:44.478Z,9.29
2023-05-06T03:45:44.478Z,9.22
2023-05-06T03:46:44.587Z,9.29
2023-05-06T03:47:44.592Z,9.10
2023-05-06T03:48:44.593Z,9.05
2023-05-06T03:49:44.601Z,9.21
2023-05-06T03:50:44.982Z,9.18
2023-05-06T03:51:44.684Z,9.14
2023-05-06T03:52:44.731Z,9.22
2023-05-06T03:53:44.751Z,9.37
2023-05-06T03:54:45.009Z,9.26
2023-05-06T03:55:44.806Z,9.22
2023-05-06T03:56:44.856Z,9.40
2023-05-06T03:57:44.938Z,9.30
2023-05-06T03:58:44.873Z,9.36
2023-05-06T03:59:44.938Z,9.41
2023-05-06T04:00:44.945Z,9.41
2023-05-06T04:01:45.018Z,9.43
2023-05-06T04:02:46.001Z,9.50
2023-05-06T04:03:45.146Z,9.36
2023-05-06T04:04:45.077Z,9.49
2023-05-06T04:05:45.086Z,9.28
2023-05-06T04:06:45.133Z,9.45
2023-05-06T04:07:45.146Z,9.34
2023-05-06T04:08:45.214Z,9.35
2023-05-06T04:09:45.225Z,9.33
2023-05-06T04:10:45.237Z,9.08
2023-05-06T04:11:45.277Z,9.10
2023-05-06T04:12:45.335Z,9.36
2023-05-06T04:13:45.344Z,9.25
2023-05-06T04:14:45.423Z,9.42
2023-05-06T04:15:45.355Z,9.39
2023-05-06T04:16:45.452Z,9.17
2023-05-06T04:17:45.527Z,9.13
2023-05-06T04:18:45.477Z,9.20
2023-05-06T04:19:45.439Z,9.28
2023-05-06T04:20:45.501Z,9.39
2023-05-06T04:21:46.005Z,9.38
2023-05-06T04:22:45.556Z,9.35
2023-05-06T04:23:45.620Z,9.21
2023-05-06T04:24:47.484Z,9.31
2023-05-06T04:25:45.626Z,9.24
2023-05-06T04:26:45.644Z,9.27
2023-05-06T04:27:45.641Z,9.09
2023-05-06T04:28:45.704Z,9.50
2023-05-06T04:29:45.703Z,9.25
2023-05-06T04:30:45.933Z,9.20
2023-05-06T04:31:45.803Z,9.11
2023-05-06T04:32:45.841Z,8.96
2023-05-06T04:33:45.848Z,8.98
2023-05-06T04:34:45.842Z,8.98
2023-05-06T04:35:45.905Z,8.90
2023-05-06T04:36:45.964Z,8.80
2023-05-06T04:37:45.911Z,8.70
2023-05-06T04:38:45.945Z,8.81
2023-05-06T04:39:45.956Z,8.59
2023-05-06T04:40:45.998Z,8.53
2023-05-06T04:41:46.045Z,8.35
2023-05-06T04:42:46.057Z,8.36
2023-05-06T04:43:46.115Z,8.40
2023-05-06T04:44:46.125Z,8.39
2023-05-06T04:45:46.567Z,8.16
2023-05-06T04:46:46.262Z,8.12
2023-05-06T04:47:46.278Z,7.93
2023-05-06T04:48:46.258Z,7.94
2023-05-06T04:49:46.284Z,7.95
2023-05-06T04:50:46.307Z,7.75
2023-05-06T04:51:46.334Z,7.40
2023-05-06T04:52:46.340Z,7.43
2023-05-06T04:53:46.365Z,7.33
2023-05-06T04:54:46.393Z,7.44
2023-05-06T04:55:46.407Z,7.81
2023-05-06T04:56:46.427Z,8.13
2023-05-06T04:57:46.521Z,8.84
2023-05-06T04:58:46.502Z,9.00
2023-05-06T04:59:46.567Z,9.09
2023-05-06T05:00:46.561Z,9.53
2023-05-06T05:01:46.685Z,9.79
2023-05-06T05:02:46.678Z,10.34
2023-05-06T05:03:46.833Z,10.87
2023-05-06T05:04:46.704Z,10.92
2023-05-06T05:05:46.712Z,11.30
2023-05-06T05:06:46.715Z,11.57
2023-05-06T05:07:47.533Z,11.88
2023-05-06T05:08:46.744Z,11.93
2023-05-06T05:09:46.776Z,12.03
2023-05-06T05:10:46.750Z,12.00
2023-05-06T05:11:46.852Z,11.97
2023-05-06T05:12:46.868Z,12.31
2023-05-06T05:13:46.884Z,12.65
2023-05-06T05:14:46.862Z,12.80
2023-05-06T05:15:46.898Z,12.93
2023-05-06T05:16:46.938Z,13.38
2023-05-06T05:17:46.971Z,13.39
2023-05-06T05:18:46.998Z,13.90
2023-05-06T05:19:47.027Z,14.42
2023-05-06T05:20:47.050Z,13.92
2023-05-06T05:21:47.067Z,14.19
2023-05-06T05:22:47.186Z,13.89
2023-05-06T05:23:47.152Z,13.97
2023-05-06T05:24:47.109Z,14.09
2023-05-06T05:25:47.183Z,14.07
2023-05-06T05:26:47.205Z,14.25
2023-05-06T05:27:47.287Z,14.34
2023-05-06T05:28:47.270Z,14.57
2023-05-06T05:29:47.317Z,14.21
2023-05-06T05:30:47.483Z,14.00
2023-05-06T05:31:47.458Z,14.26
2023-05-06T05:32:47.557Z,14.02
2023-05-06T05:33:47.482Z,14.02
2023-05-06T05:34:47.455Z,13.75
2023-05-06T05:35:47.439Z,13.71
2023-05-06T05:36:47.481Z,13.65
2023-05-06T05:37:48.045Z,13.94
2023-05-06T05:38:47.591Z,13.51
2023-05-06T05:39:47.603Z,13.22
2023-05-06T05:40:47.612Z,12.65
2023-05-06T05:41:47.663Z,12.92
2023-05-06T05:42:47.687Z,12.53
2023-05-06T05:43:47.733Z,12.50
2023-05-06T05:44:47.767Z,12.44
2023-05-06T05:45:47.833Z,12.03
2023-05-06T05:46:47.952Z,11.95
2023-05-06T05:47:47.862Z,11.49
2023-05-06T05:48:47.916Z,11.12
2023-05-06T05:49:47.924Z,11.14
2023-05-06T05:50:47.974Z,10.94
2023-05-06T05:51:47.977Z,10.59
2023-05-06T05:52:48.046Z,10.27
2023-05-06T05:53:48.008Z,10.13
2023-05-06T05:54:48.053Z,9.93
2023-05-06T05:55:48.095Z,9.85
2023-05-06T05:56:48.136Z,9.77
2023-05-06T05:57:48.197Z,9.46
2023-05-06T05:58:48.214Z,9.47
2023-05-06T05:59:48.261Z,9.42
2023-05-06T06:00:48.309Z,9.29
2023-05-06T06:01:48.278Z,9.15
2023-05-06T06:02:48.384Z,9.08
2023-05-06T06:03:48.485Z,9.14
2023-05-06T06:04:48.382Z,8.95
2023-05-06T06:05:48.442Z,8.83
2023-05-06T06:06:48.408Z,8.90
2023-05-06T06:07:48.498Z,8.67
2023-05-06T06:08:48.506Z,8.62
2023-05-06T06:09:48.526Z,8.70
2023-05-06T06:10:48.536Z,8.58
2023-05-06T06:11:48.601Z,8.64
2023-05-06T06:12:48.641Z,8.77
2023-05-06T06:13:48.616Z,8.60
2023-05-06T06:14:48.700Z,8.54
2023-05-06T06:15:48.764Z,8.58
2023-05-06T06:16:48.744Z,8.50
2023-05-06T06:17:48.820Z,8.50
2023-05-06T06:18:48.787Z,8.42
2023-05-06T06:19:48.804Z,8.49
2023-05-06T06:20:49.645Z,8.61
2023-05-06T06:21:48.888Z,8.55
2023-05-06T06:22:48.953Z,8.66
2023-05-06T06:23:48.936Z,8.50
2023-05-06T06:24:48.995Z,8.46
2023-05-06T06:25:48.978Z,8.53
2023-05-06T06:26:49.097Z,8.68
2023-05-06T06:27:49.104Z,8.85
2023-05-06T06:28:49.135Z,8.74
2023-05-06T06:29:49.107Z,8.56
2023-05-06T06:30:49.146Z,8.81
2023-05-06T06:31:49.220Z,8.99
2023-05-06T06:32:49.331Z,8.66
2023-05-06T06:33:49.350Z,8.83
2023-05-06T06:34:49.252Z,8.65
2023-05-06T06:35:49.327Z,9.07
2023-05-06T06:36:49.369Z,9.13
2023-05-06T06:37:49.410Z,9.09
2023-05-06T06:38:49.505Z,9.47
2023-05-06T06:39:49.443Z,9.18
2023-05-06T06:40:49.500Z,9.21
2023-05-06T06:41:49.524Z,9.19
2023-05-06T06:42:49.606Z,9.23
2023-05-06T06:43:49.574Z,9.26
2023-05-06T06:44:49.686Z,9.21
2023-05-06T06:45:49.694Z,9.04
2023-05-06T06:46:49.669Z,9.07
2023-05-06T06:47:49.730Z,8.86
2023-05-06T06:48:49.783Z,9.10
2023-05-06T06:49:49.788Z,9.03
2023-05-06T06:50:49.816Z,8.93
2023-05-06T06:51:49.899Z,9.19
2023-05-06T06:52:49.921Z,9.09
2023-05-06T06:53:49.933Z,8.95
2023-05-06T06:54:49.920Z,8.92
2023-05-06T06:55:50.081Z,9.00
2023-05-06T06:56:50.033Z,8.93
2023-05-06T06:57:50.085Z,8.86
2023-05-06T06:58:52.383Z,8.94
2023-05-06T06:59:50.084Z,8.75
2023-05-06T07:00:50.147Z,8.49
2023-05-06T07:01:50.116Z,8.53
2023-05-06T07:02:50.077Z,8.69
2023-05-06T07:03:50.105Z,8.64
2023-05-06T07:04:50.077Z,8.57
2023-05-06T07:05:50.035Z,8.38
2023-05-06T07:06:50.019Z,8.48
2023-05-06T07:07:50.026Z,8.36
2023-05-06T07:08:50.053Z,8.36
2023-05-06T07:09:50.056Z,8.15
2023-05-06T07:10:50.240Z,8.06
2023-05-06T07:11:50.072Z,8.10
2023-05-06T07:12:50.065Z,7.98
2023-05-06T07:13:50.033Z,7.94
2023-05-06T07:14:50.022Z,7.87
2023-05-06T07:15:49.970Z,7.89
2023-05-06T07:16:51.441Z,7.71
2023-05-06T07:17:49.995Z,7.56
2023-05-06T07:18:49.958Z,7.67
2023-05-06T07:19:50.014Z,7.56
2023-05-06T07:20:50.016Z,7.54
2023-05-06T07:21:49.941Z,7.46
2023-05-06T07:22:49.931Z,7.35
2023-05-06T07:23:49.974Z,7.20
2023-05-06T07:24:49.933Z,7.04
2023-05-06T07:25:49.934Z,6.86
2023-05-06T07:26:49.953Z,6.69
2023-05-06T07:27:49.980Z,6.52
2023-05-06T07:28:49.915Z,6.41
2023-05-06T07:29:49.892Z,6.46
2023-05-06T07:30:49.978Z,6.41
2023-05-06T07:31:49.862Z,6.43
2023-05-06T07:32:49.883Z,6.20
2023-05-06T07:33:49.853Z,6.34
2023-05-06T07:34:49.890Z,6.11
2023-05-06T07:35:50.615Z,6.01
2023-05-06T07:36:49.865Z,5.95
2023-05-06T07:37:49.852Z,5.95
2023-05-06T07:38:49.821Z,5.62
2023-05-06T07:39:49.830Z,5.48
2023-05-06T07:40:49.857Z,5.50
2023-05-06T07:41:49.915Z,5.28
2023-05-06T07:42:49.982Z,5.15
2023-05-06T07:43:49.963Z,5.06
2023-05-06T07:44:49.980Z,5.15
2023-05-06T07:45:50.063Z,5.08
2023-05-06T07:46:50.228Z,4.93
2023-05-06T07:47:50.220Z,4.82
2023-05-06T07:48:50.150Z,4.73
2023-05-06T07:49:50.181Z,4.90
2023-05-06T07:50:50.165Z,5.00
2023-05-06T07:51:50.215Z,4.87
2023-05-06T07:52:50.222Z,4.85
2023-05-06T07:53:50.304Z,4.65
2023-05-06T07:54:50.294Z,4.63
2023-05-06T07:55:50.303Z,4.70
2023-05-06T07:56:50.373Z,4.97
2023-05-06T07:57:50.463Z,4.92
2023-05-06T07:58:50.496Z,5.07
2023-05-06T07:59:50.539Z,4.94
2023-05-06T08:00:51.093Z,5.00
2023-05-06T08:01:50.464Z,5.13
2023-05-06T08:02:50.550Z,5.14
2023-05-06T08:03:50.657Z,5.12
2023-05-06T08:04:51.758Z,4.95
2023-05-06T08:05:50.579Z,5.03
2023-05-06T08:06:50.617Z,5.00
2023-05-06T08:07:50.634Z,5.04
2023-05-06T08:08:51.113Z,5.24
2023-05-06T08:09:50.741Z,5.37
2023-05-06T08:10:50.749Z,5.42
2023-05-06T08:11:50.793Z,5.49
2023-05-06T08:12:50.847Z,5.43
2023-05-06T08:13:50.891Z,5.41
2023-05-06T08:14:50.894Z,5.54
2023-05-06T08:15:50.917Z,5.62
2023-05-06T08:16:51.122Z,5.64
2023-05-06T08:17:50.993Z,5.53
2023-05-06T08:18:50.964Z,5.43
2023-05-06T08:19:51.000Z,5.58
2023-05-06T08:20:51.097Z,5.50
2023-05-06T08:21:51.075Z,5.39
2023-05-06T08:22:51.094Z,5.39
2023-05-06T08:23:51.150Z,5.31
2023-05-06T08:24:51.217Z,5.37
2023-05-06T08:25:51.228Z,5.38
2023-05-06T08:26:51.222Z,5.19
2023-05-06T08:27:51.275Z,5.11
2023-05-06T08:28:51.282Z,5.15
2023-05-06T08:29:51.321Z,5.16
2023-05-06T08:30:51.394Z,5.22
2023-05-06T08:31:51.400Z,5.07
2023-05-06T08:32:51.494Z,5.18
2023-05-06T08:33:53.868Z,5.08
2023-05-06T08:34:51.447Z,5.02
2023-05-06T08:35:51.465Z,4.85
2023-05-06T08:36:51.395Z,4.68
2023-05-06T08:37:51.417Z,4.65
2023-05-06T08:38:51.410Z,4.67
2023-05-06T08:39:51.382Z,4.59
2023-05-06T08:40:51.367Z,4.41
2023-05-06T08:41:51.392Z,4.23
2023-05-06T08:42:51.414Z,4.15
2023-05-06T08:43:51.345Z,4.01
2023-05-06T08:44:51.345Z,4.08
2023-05-06T08:45:51.404Z,3.95
2023-05-06T08:46:51.388Z,3.82
2023-05-06T08:47:51.364Z,3.66
2023-05-06T08:48:51.325Z,3.70
2023-05-06T08:49:51.342Z,3.59
2023-05-06T08:50:51.300Z,3.45
2023-05-06T08:51:51.314Z,3.35
2023-05-06T08:52:51.292Z,3.24
2023-05-06T08:53:51.310Z,3.20
2023-05-06T08:54:51.277Z,3.14
2023-05-06T08:55:51.267Z,3.09
2023-05-06T08:56:51.640Z,3.09
2023-05-06T08:57:51.298Z,3.11
2023-05-06T08:58:51.243Z,3.02
2023-05-06T08:59:51.257Z,2.91
2023-05-06T09:00:51.292Z,2.82
2023-05-06T09:01:51.233Z,2.77
2023-05-06T09:02:51.278Z,2.74
2023-05-06T09:03:51.681Z,2.73
2023-05-06T09:04:51.233Z,2.69
2023-05-06T09:05:51.179Z,2.69
2023-05-06T09:06:51.194Z,2.67
2023-05-06T09:07:51.219Z,2.73
2023-05-06T09:08:51.157Z,2.84
2023-05-06T09:09:51.165Z,2.85
2023-05-06T09:10:51.179Z,2.81
2023-05-06T09:11:51.184Z,2.85
2023-05-06T09:12:51.251Z,2.87
2023-05-06T09:13:51.241Z,2.88
2023-05-06T09:14:51.220Z,2.83
2023-05-06T09:15:51.108Z,2.81
2023-05-06T09:16:51.173Z,2.88
2023-05-06T09:17:51.295Z,3.02
2023-05-06T09:18:51.112Z,3.15
2023-05-06T09:19:51.123Z,3.17
2023-05-06T09:20:51.097Z,3.36
2023-05-06T09:21:51.083Z,3.38
2023-05-06T09:22:51.042Z,3.60
2023-05-06T09:23:51.075Z,3.55
2023-05-06T09:24:51.056Z,3.53
2023-05-06T09:25:51.632Z,3.42
2023-05-06T09:26:51.013Z,3.39
2023-05-06T09:27:51.039Z,3.39
2023-05-06T09:28:51.037Z,3.41
2023-05-06T09:29:51.006Z,3.64
2023-05-06T09:30:51.017Z,3.52
2023-05-06T09:31:51.004Z,3.52
2023-05-06T09:32:51.075Z,3.54
2023-05-06T09:33:50.970Z,3.35
2023-05-06T09:34:51.045Z,3.17
2023-05-06T09:35:50.993Z,3.06
2023-05-06T09:36:50.951Z,2.98
2023-05-06T09:37:50.969Z,2.97
2023-05-06T09:38:50.945Z,3.26
2023-05-06T09:39:50.917Z,3.28
2023-05-06T09:40:50.933Z,3.01
2023-05-06T09:41:50.931Z,2.94
2023-05-06T09:42:50.940Z,2.87
2023-05-06T09:43:50.936Z,3.03
2023-05-06T09:44:50.926Z,3.27
2023-05-06T09:45:50.945Z,3.26
2023-05-06T09:46:50.958Z,3.13
2023-05-06T09:47:50.894Z,2.94
2023-05-06T09:48:50.872Z,3.02
2023-05-06T09:49:50.874Z,2.92
2023-05-06T09:50:51.043Z,2.79
2023-05-06T09:51:50.841Z,2.69
2023-05-06T09:52:50.864Z,2.64
2023-05-06T09:53:51.212Z,2.63
2023-05-06T09:54:50.856Z,2.85
2023-05-06T09:55:50.830Z,2.97
2023-05-06T09:56:50.823Z,2.82
2023-05-06T09:57:50.817Z,2.65
2023-05-06T09:58:50.843Z,2.74
2023-05-06T09:59:50.765Z,2.85
2023-05-06T10:00:50.808Z,2.85
2023-05-06T10:01:50.850Z,2.83
2023-05-06T10:02:51.064Z,3.00
2023-05-06T10:03:50.950Z,2.93
2023-05-06T10:04:51.337Z,3.08
2023-05-06T10:05:50.888Z,3.11
2023-05-06T10:06:50.896Z,3.16
2023-05-06T10:07:50.896Z,3.11
2023-05-06T10:08:50.945Z,3.20
2023-05-06T10:09:51.003Z,3.25
2023-05-06T10:10:50.976Z,3.22
2023-05-06T10:11:50.962Z,3.22
2023-05-06T10:12:50.986Z,3.32
2023-05-06T10:13:50.953Z,3.48
2023-05-06T10:14:50.992Z,3.54
2023-05-06T10:15:51.022Z,3.59
2023-05-06T10:16:51.065Z,3.60
2023-05-06T10:17:51.143Z,3.63
2023-05-06T10:18:51.084Z,3.72
2023-05-06T10:19:51.083Z,3.86
2023-05-06T10:20:51.148Z,3.86
2023-05-06T10:21:51.091Z,3.81
2023-05-06T10:22:51.292Z,3.83
2023-05-06T10:23:51.103Z,3.90
2023-05-06T10:24:51.173Z,3.94
2023-05-06T10:25:51.232Z,4.03
2023-05-06T10:26:51.227Z,4.11
2023-05-06T10:27:51.242Z,4.11
2023-05-06T10:28:51.250Z,4.15
2023-05-06T10:29:51.249Z,4.31
2023-05-06T10:30:51.254Z,4.32
2023-05-06T10:31:51.296Z,4.30
2023-05-06T10:32:51.338Z,4.40
2023-05-06T10:33:51.315Z,4.48
2023-05-06T10:34:51.313Z,4.52
2023-05-06T10:35:51.306Z,4.60
2023-05-06T10:36:51.390Z,4.58
2023-05-06T10:37:51.365Z,4.51
2023-05-06T10:38:51.507Z,4.40
2023-05-06T10:39:51.408Z,4.45
2023-05-06T10:40:51.441Z,4.37
2023-05-06T10:41:52.207Z,4.28
2023-05-06T10:42:51.509Z,3.79
2023-05-06T10:43:51.478Z,3.80
2023-05-06T10:44:51.486Z,3.47
2023-05-06T10:45:51.535Z,3.27
2023-05-06T10:46:51.549Z,3.18
2023-05-06T10:47:51.665Z,3.20
2023-05-06T10:48:51.571Z,3.09
2023-05-06T10:49:51.581Z,2.98
2023-05-06T10:50:51.651Z,2.85
2023-05-06T10:51:51.653Z,2.76
2023-05-06T10:52:51.666Z,2.81
2023-05-06T10:53:51.693Z,2.83
2023-05-06T10:54:51.862Z,2.88
2023-05-06T10:55:51.700Z,2.90
2023-05-06T10:56:51.730Z,2.69
2023-05-06T10:57:51.733Z,2.64
2023-05-06T10:58:51.733Z,2.78
2023-05-06T10:59:51.826Z,2.60
2023-05-06T11:00:51.885Z,2.62
2023-05-06T11:01:51.793Z,2.79
2023-05-06T11:02:51.880Z,2.61
2023-05-06T11:03:51.864Z,2.71
2023-05-06T11:04:51.884Z,2.69
2023-05-06T11:05:51.856Z,2.53
2023-05-06T11:06:51.889Z,2.54
2023-05-06T11:07:51.879Z,2.47
2023-05-06T11:08:51.926Z,2.44
2023-05-06T11:09:51.957Z,2.27
2023-05-06T11:10:51.967Z,2.13
2023-05-06T11:11:51.988Z,2.06
2023-05-06T11:12:52.018Z,2.03
2023-05-06T11:13:52.018Z,2.04
2023-05-06T11:14:52.067Z,2.09
2023-05-06T11:15:52.156Z,2.19
2023-05-06T11:16:52.122Z,2.09
2023-05-06T11:17:52.156Z,2.20
2023-05-06T11:18:52.183Z,2.17
2023-05-06T11:19:52.176Z,2.20
2023-05-06T11:20:52.207Z,2.11
2023-05-06T11:21:52.181Z,2.06
2023-05-06T11:22:52.203Z,2.03
2023-05-06T11:23:52.263Z,2.00
2023-05-06T11:24:52.256Z,2.08
2023-05-06T11:25:52.251Z,2.17
2023-05-06T11:26:52.326Z,2.26
2023-05-06T11:27:52.329Z,2.42
2023-05-06T11:28:52.698Z,2.47
2023-05-06T11:29:52.415Z,2.48
2023-05-06T11:30:52.379Z,2.59
2023-05-06T11:31:52.383Z,2.52
2023-05-06T11:32:52.429Z,2.70
2023-05-06T11:33:52.483Z,2.77
2023-05-06T11:34:52.431Z,2.83
2023-05-06T11:35:52.492Z,2.82
2023-05-06T11:36:52.509Z,2.85
2023-05-06T11:37:52.583Z,2.94
2023-05-06T11:38:52.688Z,2.85
2023-05-06T11:39:52.568Z,2.91
2023-05-06T11:40:52.646Z,3.05
2023-05-06T11:41:52.653Z,3.00
2023-05-06T11:42:52.820Z,3.00
2023-05-06T11:43:52.758Z,2.90
2023-05-06T11:44:52.664Z,2.64
2023-05-06T11:45:52.819Z,2.47
2023-05-06T11:46:52.815Z,2.66
2023-05-06T11:47:52.906Z,2.82
2023-05-06T11:48:52.800Z,2.79
2023-05-06T11:49:52.924Z,2.80
2023-05-06T11:50:52.812Z,2.78
2023-05-06T11:51:52.930Z,3.01
2023-05-06T11:52:52.861Z,3.08
2023-05-06T11:53:52.869Z,3.10
2023-05-06T11:54:52.913Z,2.93
2023-05-06T11:55:52.944Z,2.76
2023-05-06T11:56:52.888Z,2.65
2023-05-06T11:57:52.957Z,2.65
2023-05-06T11:58:52.999Z,2.65
2023-05-06T11:59:53.008Z,2.71
2023-05-06T12:00:53.015Z,2.64
2023-05-06T12:01:53.026Z,2.59
2023-05-06T12:02:53.169Z,2.67
2023-05-06T12:03:53.189Z,2.75
2023-05-06T12:04:53.231Z,2.67
2023-05-06T12:05:53.129Z,2.61
2023-05-06T12:06:53.161Z,2.64
2023-05-06T12:07:55.700Z,2.64
2023-05-06T12:08:53.278Z,2.65
2023-05-06T12:09:53.324Z,2.68
2023-05-06T12:10:53.363Z,2.71
2023-05-06T12:11:53.432Z,2.85
2023-05-06T12:12:53.434Z,2.92
2023-05-06T12:13:53.421Z,3.01
2023-05-06T12:14:53.505Z,3.07
2023-05-06T12:15:53.522Z,3.16
2023-05-06T12:16:55.950Z,3.34
2023-05-06T12:17:53.798Z,3.39
2023-05-06T12:18:53.716Z,3.49
2023-05-06T12:19:53.727Z,3.61
2023-05-06T12:20:53.724Z,3.65
2023-05-06T12:21:53.836Z,3.71
2023-05-06T12:22:55.447Z,3.76
2023-05-06T12:23:53.927Z,3.78
2023-05-06T12:24:53.884Z,3.80
2023-05-06T12:25:53.893Z,3.78
2023-05-06T12:26:53.921Z,3.83
2023-05-06T12:27:54.924Z,3.90
2023-05-06T12:28:53.936Z,3.86
2023-05-06T12:29:54.012Z,3.97
2023-05-06T12:30:54.065Z,4.02
2023-05-06T12:31:54.086Z,4.09
2023-05-06T12:32:54.198Z,4.11
2023-05-06T12:33:56.031Z,4.16
2023-05-06T12:34:54.139Z,4.22
2023-05-06T12:35:54.084Z,4.15
2023-05-06T12:36:54.116Z,4.19
2023-05-06T12:37:54.090Z,4.19
2023-05-06T12:38:54.085Z,4.06
2023-05-06T12:39:55.129Z,4.06
2023-05-06T12:40:54.078Z,4.06
2023-05-06T12:41:54.064Z,4.08
2023-05-06T12:42:54.706Z,4.13
2023-05-06T12:43:54.068Z,4.27
2023-05-06T12:44:54.104Z,4.40
2023-05-06T12:45:55.100Z,4.45
2023-05-06T12:46:54.348Z,4.45
2023-05-06T12:47:54.366Z,4.26
2023-05-06T12:48:56.208Z,4.29
2023-05-06T12:49:54.363Z,4.31
2023-05-06T12:50:54.360Z,4.36
2023-05-06T12:51:54.365Z,4.32
2023-05-06T12:52:54.374Z,4.22
2023-05-06T12:53:54.405Z,4.20
2023-05-06T12:54:54.422Z,4.17
2023-05-06T12:55:54.433Z,4.09
2023-05-06T12:56:54.496Z,4.01
2023-05-06T12:57:55.540Z,3.95
2023-05-06T12:58:54.543Z,4.05
2023-05-06T12:59:54.540Z,3.99
2023-05-06T13:00:54.665Z,3.99
2023-05-06T13:01:54.632Z,3.97
2023-05-06T13:02:54.731Z,3.95
2023-05-06T13:03:54.634Z,3.87
2023-05-06T13:04:54.697Z,3.82
2023-05-06T13:05:54.709Z,3.81
2023-05-06T13:06:54.693Z,3.74
2023-05-06T13:07:54.780Z,3.71
2023-05-06T13:08:54.772Z,3.72
2023-05-06T13:09:55.220Z,3.67
2023-05-06T13:10:54.822Z,3.66